createdAt,value
2022-12-23T00:00:46.085Z,45.70
2022-12-23T00:03:29.696Z,43.10
2022-12-23T00:06:00.995Z,43.70
2022-12-23T00:08:29.198Z,45.20
2022-12-23T00:11:00.651Z,44.90
2022-12-23T00:13:47.461Z,45.80
2022-12-23T00:16:16.269Z,44.00
2022-12-23T00:18:46.781Z,46.50
2022-12-23T00:21:20.418Z,41.10
2022-12-23T00:23:52.489Z,41.50
2022-12-23T00:26:28.498Z,48.30
2022-12-23T00:29:00.975Z,40.00
2022-12-23T00:31:29.187Z,43.20
2022-12-23T00:33:58.569Z,38.90
2022-12-23T00:36:32.463Z,41.00
2022-12-23T00:39:19.531Z,37.90
2022-12-23T00:42:06.179Z,40.60
2022-12-23T00:44:39.036Z,40.90
2022-12-23T00:47:07.020Z,39.70
2022-12-23T00:49:44.458Z,38.80
2022-12-23T00:52:17.024Z,38.20
2022-12-23T00:54:45.033Z,39.00
2022-12-23T00:57:17.446Z,38.60
2022-12-23T00:59:45.605Z,40.50
2022-12-23T01:02:32.434Z,39.00
2022-12-23T01:05:21.216Z,37.00
2022-12-23T01:07:49.375Z,37.90
2022-12-23T01:10:19.950Z,37.70
2022-12-23T01:12:47.895Z,39.50
2022-12-23T01:15:19.696Z,38.90
2022-12-23T01:17:47.862Z,40.70
2022-12-23T01:20:15.826Z,41.90
2022-12-23T01:22:44.098Z,40.90
2022-12-23T01:25:12.312Z,36.10
2022-12-23T01:27:42.224Z,42.20
2022-12-23T01:30:14.452Z,38.20
2022-12-23T01:32:42.659Z,37.80
2022-12-23T01:35:13.598Z,37.60
2022-12-23T01:37:41.923Z,42.90
2022-12-23T01:40:13.024Z,39.00
2022-12-23T01:42:44.192Z,41.10
2022-12-23T01:45:22.258Z,41.20
2022-12-23T01:47:54.575Z,40.00
2022-12-23T01:50:34.500Z,40.70
2022-12-23T01:53:25.485Z,39.90
2022-12-23T01:56:02.178Z,42.10
2022-12-23T01:58:56.545Z,43.60
2022-12-23T02:01:45.953Z,40.90
2022-12-23T02:04:23.310Z,37.70
2022-12-23T02:07:15.088Z,41.10
2022-12-23T02:09:43.293Z,37.70
2022-12-23T02:12:33.741Z,43.40
2022-12-23T02:15:47.861Z,39.80
2022-12-23T02:18:49.894Z,41.60
2022-12-23T02:21:26.723Z,39.60
2022-12-23T02:23:58.187Z,40.10
2022-12-23T02:26:44.406Z,42.30
2022-12-23T02:29:15.332Z,40.60
2022-12-23T02:32:03.739Z,44.20
2022-12-23T02:34:49.489Z,41.40
2022-12-23T02:37:36.919Z,44.80
2022-12-23T02:40:23.229Z,41.30
2022-12-23T02:43:02.532Z,42.70
2022-12-23T02:45:38.698Z,42.30
2022-12-23T02:48:23.764Z,40.70
2022-12-23T02:50:54.797Z,40.60
2022-12-23T02:53:35.710Z,40.90
2022-12-23T02:56:09.575Z,42.10
2022-12-23T02:58:48.068Z,44.50
2022-12-23T03:01:18.139Z,44.30
2022-12-23T03:03:52.067Z,47.80
2022-12-23T03:06:34.168Z,45.80
2022-12-23T03:09:02.315Z,41.30
2022-12-23T03:11:47.487Z,45.60
2022-12-23T03:14:47.655Z,47.80
2022-12-23T03:17:27.676Z,41.70
2022-12-23T03:22:49.970Z,45.20
2022-12-23T03:25:36.267Z,45.30
2022-12-23T03:28:32.358Z,43.00
2022-12-23T03:31:06.219Z,41.30
2022-12-23T03:33:41.039Z,42.70
2022-12-23T03:36:47.113Z,46.30
2022-12-23T03:39:25.646Z,44.50
2022-12-23T03:42:06.699Z,45.70
2022-12-23T03:45:10.815Z,45.80
2022-12-23T03:47:59.307Z,45.80
2022-12-23T03:50:32.703Z,46.90
2022-12-23T03:53:30.277Z,45.30
2022-12-23T03:56:16.758Z,43.70
2022-12-23T03:58:57.086Z,46.40
2022-12-23T04:01:27.842Z,42.40
2022-12-23T04:04:25.686Z,43.90
2022-12-23T04:07:11.011Z,44.90
2022-12-23T04:09:44.279Z,46.60
2022-12-23T04:12:16.424Z,43.10
2022-12-23T04:14:50.977Z,45.20
2022-12-23T04:17:23.835Z,44.60
2022-12-23T04:19:57.168Z,42.50
2022-12-23T04:22:25.186Z,44.10
2022-12-23T04:24:53.210Z,46.40
2022-12-23T04:27:21.366Z,42.90
2022-12-23T04:29:49.276Z,46.70
2022-12-23T04:32:17.265Z,45.80
2022-12-23T04:34:45.402Z,44.60
2022-12-23T04:37:13.607Z,42.70
2022-12-23T04:39:41.553Z,45.20
2022-12-23T04:42:09.539Z,44.60
2022-12-23T04:44:37.566Z,45.60
2022-12-23T04:47:05.576Z,44.40
2022-12-23T04:49:36.243Z,42.10
2022-12-23T04:52:06.190Z,47.10
2022-12-23T04:54:45.531Z,43.60
2022-12-23T04:57:18.922Z,44.20
2022-12-23T04:59:47.393Z,45.10
2022-12-23T05:02:15.885Z,47.40
2022-12-23T05:04:48.412Z,42.20
2022-12-23T05:07:16.607Z,42.00
2022-12-23T05:09:44.734Z,42.60
2022-12-23T05:12:16.922Z,42.90
2022-12-23T05:14:45.147Z,44.50
2022-12-23T05:17:13.096Z,44.20
2022-12-23T05:19:41.279Z,43.40
2022-12-23T05:22:09.431Z,45.60
2022-12-23T05:24:37.585Z,44.10
2022-12-23T05:27:08.840Z,42.90
2022-12-23T05:29:37.044Z,46.50
2022-12-23T05:32:08.191Z,41.50
2022-12-23T05:34:36.359Z,40.70
2022-12-23T05:37:04.375Z,44.30
2022-12-23T05:39:32.553Z,41.80
2022-12-23T05:42:00.477Z,40.50
2022-12-23T05:44:28.644Z,40.30
2022-12-23T05:46:56.694Z,44.10
2022-12-23T05:49:27.080Z,42.70
2022-12-23T05:51:55.256Z,41.20
2022-12-23T05:54:23.196Z,42.30
2022-12-23T05:56:51.423Z,41.40
2022-12-23T05:59:21.658Z,42.10
2022-12-23T06:01:49.805Z,40.90
2022-12-23T06:04:18.721Z,41.90
2022-12-23T06:06:51.069Z,41.80
2022-12-23T06:09:19.025Z,40.60
2022-12-23T06:11:51.802Z,42.70
2022-12-23T06:14:25.163Z,38.30
2022-12-23T06:16:56.869Z,41.40
2022-12-23T06:19:27.922Z,39.90
2022-12-23T06:21:56.025Z,41.30
2022-12-23T06:24:24.256Z,42.70
2022-12-23T06:26:56.988Z,41.70
2022-12-23T06:29:30.826Z,40.90
2022-12-23T06:31:58.819Z,32.70
2022-12-23T06:34:35.836Z,36.70
2022-12-23T06:37:04.139Z,39.80
2022-12-23T06:39:32.366Z,40.40
2022-12-23T06:42:00.523Z,40.40
2022-12-23T06:44:28.488Z,39.80
2022-12-23T06:46:56.645Z,40.00
2022-12-23T06:49:24.828Z,40.20
2022-12-23T06:51:53.030Z,43.50
2022-12-23T06:54:20.994Z,41.40
2022-12-23T06:56:48.952Z,37.90
2022-12-23T06:59:16.928Z,41.40
2022-12-23T07:01:45.147Z,37.90
2022-12-23T07:04:17.634Z,36.30
2022-12-23T07:06:45.852Z,38.10
2022-12-23T07:09:14.024Z,39.90
2022-12-23T07:11:42.233Z,43.40
2022-12-23T07:14:13.259Z,41.20
2022-12-23T07:16:41.523Z,42.90
2022-12-23T07:19:14.033Z,38.30
2022-12-23T07:21:42.222Z,38.50
2022-12-23T07:24:12.859Z,42.70
2022-12-23T07:26:45.743Z,43.30
2022-12-23T07:29:13.928Z,40.20
2022-12-23T07:31:45.371Z,41.30
2022-12-23T07:34:17.119Z,39.20
2022-12-23T07:36:46.043Z,36.90
2022-12-23T07:39:13.999Z,39.00
2022-12-23T07:41:42.393Z,37.90
2022-12-23T07:44:10.385Z,38.30
2022-12-23T07:46:39.321Z,37.50
2022-12-23T07:49:12.629Z,34.40
2022-12-23T07:51:40.889Z,33.70
2022-12-23T07:54:09.068Z,37.20
2022-12-23T07:56:36.981Z,35.90
2022-12-23T07:59:05.126Z,36.50
2022-12-23T08:01:36.333Z,35.30
2022-12-23T08:04:09.239Z,34.90
2022-12-23T08:06:37.831Z,33.80
2022-12-23T08:09:14.175Z,38.00
2022-12-23T08:11:42.434Z,31.40
2022-12-23T08:14:13.453Z,36.10
2022-12-23T08:16:43.945Z,37.10
2022-12-23T08:19:18.068Z,33.70
2022-12-23T08:21:46.021Z,34.90
2022-12-23T08:24:17.247Z,34.30
2022-12-23T08:26:45.531Z,36.30
2022-12-23T08:29:13.672Z,33.80
2022-12-23T08:31:41.640Z,35.90
2022-12-23T08:34:15.324Z,36.40
2022-12-23T08:39:17.675Z,33.70
2022-12-23T08:41:52.133Z,34.40
2022-12-23T08:44:20.120Z,35.30
2022-12-23T08:46:52.795Z,32.30
2022-12-23T08:49:21.654Z,31.90
2022-12-23T08:51:54.524Z,31.10
2022-12-23T08:54:28.508Z,32.10
2022-12-23T08:56:56.799Z,31.70
2022-12-23T08:59:24.872Z,34.80
2022-12-23T09:01:53.063Z,31.40
2022-12-23T09:04:26.079Z,32.10
2022-12-23T09:06:54.134Z,30.00
2022-12-23T09:09:22.138Z,32.50
2022-12-23T09:11:50.211Z,30.00
2022-12-23T09:14:18.421Z,32.10
2022-12-23T09:16:46.622Z,32.20
2022-12-23T09:19:14.850Z,30.20
2022-12-23T09:21:42.795Z,31.60
2022-12-23T09:24:10.759Z,27.70
2022-12-23T09:26:39.094Z,28.00
2022-12-23T09:29:07.068Z,28.50
2022-12-23T09:31:39.815Z,29.70
2022-12-23T09:34:13.481Z,27.90
2022-12-23T09:36:41.688Z,29.20
2022-12-23T09:39:15.245Z,31.20
2022-12-23T09:42:12.693Z,30.00
2022-12-23T09:45:08.081Z,33.10
2022-12-23T09:47:38.281Z,29.10
2022-12-23T09:50:48.291Z,32.60
2022-12-23T09:53:25.360Z,29.30
2022-12-23T09:56:11.190Z,30.90
2022-12-23T09:58:50.189Z,30.10
2022-12-23T10:01:51.964Z,29.90
2022-12-23T10:04:23.091Z,28.70
2022-12-23T10:07:38.823Z,28.90
2022-12-23T10:10:33.508Z,26.80
2022-12-23T10:13:06.202Z,27.60
2022-12-23T10:15:47.508Z,30.10
2022-12-23T10:18:23.071Z,27.60
2022-12-23T10:21:01.804Z,30.80
2022-12-23T10:23:44.514Z,28.40
2022-12-23T10:26:25.607Z,29.80
2022-12-23T10:29:16.825Z,29.40
2022-12-23T10:31:59.549Z,28.30
2022-12-23T10:35:05.166Z,27.40
2022-12-23T10:37:37.744Z,28.80
2022-12-23T10:40:24.362Z,28.50
2022-12-23T10:43:02.462Z,28.40
2022-12-23T10:45:56.335Z,29.50
2022-12-23T10:48:56.532Z,25.30
2022-12-23T10:51:53.706Z,28.70
2022-12-23T10:54:27.195Z,26.60
2022-12-23T10:56:55.995Z,27.50
2022-12-23T10:59:30.212Z,27.30
2022-12-23T11:02:13.876Z,29.50
2022-12-23T11:04:44.681Z,26.90
2022-12-23T11:07:44.277Z,26.60
2022-12-23T11:10:19.599Z,27.20
2022-12-23T11:12:53.519Z,28.80
2022-12-23T11:18:12.632Z,27.30
2022-12-23T11:20:43.183Z,28.90
2022-12-23T11:23:27.119Z,27.90
2022-12-23T11:26:06.018Z,27.20
2022-12-23T11:28:38.804Z,27.60
2022-12-23T11:31:14.720Z,30.50
2022-12-23T11:34:02.633Z,27.90
2022-12-23T11:36:33.325Z,28.10
2022-12-23T11:39:24.173Z,29.40
2022-12-23T11:42:01.894Z,28.30
2022-12-23T11:44:31.276Z,28.00
2022-12-23T11:47:17.731Z,29.20
2022-12-23T11:49:56.571Z,28.10
2022-12-23T11:52:31.212Z,27.20
2022-12-23T11:55:02.420Z,28.00
2022-12-23T11:57:51.842Z,28.90
2022-12-23T12:00:21.537Z,29.10
2022-12-23T12:02:54.671Z,29.50
2022-12-23T12:05:32.461Z,29.50
2022-12-23T12:08:04.807Z,29.00
2022-12-23T12:10:40.605Z,30.10
2022-12-23T12:13:29.290Z,30.20
2022-12-23T12:15:57.556Z,29.70
2022-12-23T12:18:26.939Z,32.50
2022-12-23T12:21:02.802Z,32.40
2022-12-23T12:23:40.373Z,29.50
2022-12-23T12:26:30.375Z,28.90
2022-12-23T12:29:25.807Z,28.40
2022-12-23T12:31:59.131Z,31.50
2022-12-23T12:35:12.334Z,28.30
2022-12-23T12:37:52.158Z,28.30
2022-12-23T12:40:42.662Z,32.20
2022-12-23T12:43:20.759Z,30.70
2022-12-23T12:46:18.818Z,34.10
2022-12-23T12:49:06.043Z,33.30
2022-12-23T12:51:43.051Z,34.20
2022-12-23T12:54:28.495Z,33.50
2022-12-23T12:56:59.344Z,32.50
2022-12-23T12:59:34.780Z,33.50
2022-12-23T13:02:08.875Z,32.20
2022-12-23T13:04:56.848Z,30.30
2022-12-23T13:07:30.861Z,29.20
2022-12-23T13:10:12.158Z,32.20
2022-12-23T13:12:48.959Z,30.30
2022-12-23T13:15:49.241Z,33.10
2022-12-23T13:18:45.483Z,33.10
2022-12-23T13:21:51.236Z,34.50
2022-12-23T13:24:33.080Z,31.00
2022-12-23T13:27:13.191Z,30.90
2022-12-23T13:29:58.597Z,31.30
2022-12-23T13:32:54.685Z,34.10
2022-12-23T13:36:04.946Z,32.30
2022-12-23T13:39:05.825Z,30.20
2022-12-23T13:41:42.695Z,32.20
2022-12-23T13:44:15.692Z,32.10
2022-12-23T13:47:09.091Z,29.10
2022-12-23T13:50:19.398Z,30.30
2022-12-23T13:53:15.664Z,31.80
2022-12-23T13:56:00.519Z,28.80
2022-12-23T13:58:31.456Z,32.00
2022-12-23T14:01:08.460Z,29.20
2022-12-23T14:03:40.426Z,26.20
2022-12-23T14:06:40.376Z,30.40
2022-12-23T14:09:15.660Z,30.50
2022-12-23T14:11:45.576Z,31.50
2022-12-23T14:14:24.070Z,34.20
2022-12-23T14:17:11.304Z,33.70
2022-12-23T14:19:59.006Z,33.20
2022-12-23T14:22:56.173Z,31.90
2022-12-23T14:25:37.189Z,31.00
2022-12-23T14:28:29.341Z,29.40
2022-12-23T14:30:59.609Z,31.80
2022-12-23T14:33:33.877Z,32.90
2022-12-23T14:36:21.514Z,31.60
2022-12-23T14:39:40.259Z,32.70
2022-12-23T14:42:16.677Z,30.30
2022-12-23T14:44:50.472Z,29.10
2022-12-23T14:50:34.561Z,29.70
2022-12-23T14:53:23.149Z,28.30
2022-12-23T14:56:11.335Z,27.70
2022-12-23T14:58:48.346Z,26.60
2022-12-23T15:01:51.264Z,27.00
2022-12-23T15:04:20.949Z,28.80
2022-12-23T15:06:55.573Z,27.30
2022-12-23T15:09:42.405Z,28.10
2022-12-23T19:04:07.849Z,30.10
2022-12-23T19:06:37.521Z,30.20
2022-12-23T19:09:07.611Z,29.80
2022-12-23T19:11:35.780Z,28.90
2022-12-23T19:14:05.453Z,31.10
2022-12-23T19:16:33.642Z,29.60
2022-12-23T19:19:05.248Z,30.60
2022-12-23T19:21:35.004Z,31.20
2022-12-23T19:24:05.437Z,30.20
2022-12-23T19:26:33.642Z,30.00
2022-12-23T19:29:01.561Z,31.60
2022-12-23T19:31:31.626Z,32.10
2022-12-23T19:34:01.886Z,30.50
2022-12-23T19:36:30.131Z,30.10
2022-12-23T19:38:59.451Z,32.50
2022-12-23T19:41:29.260Z,33.10
2022-12-23T19:43:57.464Z,32.00
2022-12-23T19:46:25.668Z,34.20
2022-12-23T19:48:55.161Z,34.20
2022-12-23T19:51:23.357Z,32.80
2022-12-23T19:53:53.517Z,30.10
2022-12-23T19:56:22.658Z,30.90
2022-12-23T19:58:53.065Z,31.20
2022-12-23T20:01:25.612Z,30.20
2022-12-23T20:03:56.873Z,33.60
2022-12-23T20:06:33.346Z,33.70
2022-12-23T20:09:06.473Z,35.90
2022-12-23T20:11:55.427Z,32.10
2022-12-23T20:14:27.792Z,32.90
2022-12-23T20:17:00.138Z,33.00
2022-12-23T20:19:28.431Z,30.50
2022-12-23T20:21:56.799Z,33.20
2022-12-23T20:24:25.047Z,32.00
2022-12-23T20:26:53.080Z,31.50
2022-12-23T20:29:21.338Z,29.90
2022-12-23T20:31:52.488Z,29.20
2022-12-23T20:34:22.168Z,29.90
2022-12-23T20:36:50.213Z,34.00
2022-12-23T20:39:20.140Z,29.30
2022-12-23T20:41:48.320Z,30.90
2022-12-23T20:47:06.966Z,30.50
2022-12-23T20:49:37.858Z,32.20
2022-12-23T20:52:06.115Z,31.20
2022-12-23T20:54:35.106Z,31.60
2022-12-23T20:57:05.102Z,30.10
2022-12-23T20:59:35.027Z,28.10
2022-12-23T21:02:03.543Z,29.60
2022-12-23T21:04:34.738Z,30.20
2022-12-23T21:07:02.719Z,30.10
2022-12-23T21:09:32.695Z,29.20
2022-12-23T21:12:00.761Z,29.60
2022-12-23T21:14:30.492Z,31.60
2022-12-23T21:16:58.681Z,29.70
2022-12-23T21:19:28.197Z,30.30
2022-12-23T21:21:57.874Z,29.60
2022-12-23T21:24:26.114Z,28.10
2022-12-23T21:26:57.303Z,27.50
2022-12-23T21:29:28.182Z,30.50
2022-12-23T21:31:56.827Z,29.40
2022-12-23T21:34:25.507Z,28.10
2022-12-23T21:36:55.613Z,32.30
2022-12-23T21:39:25.251Z,30.00
2022-12-23T21:41:53.224Z,30.40
2022-12-23T21:44:21.503Z,31.80
2022-12-23T21:46:52.314Z,30.70
2022-12-23T21:49:21.637Z,29.50
2022-12-23T21:51:51.927Z,31.10
2022-12-23T21:54:20.520Z,27.10
2022-12-23T21:56:48.465Z,29.50
2022-12-23T21:59:18.494Z,29.00
2022-12-23T22:01:46.755Z,26.40
2022-12-23T22:04:18.565Z,33.40
2022-12-23T22:06:46.545Z,27.00
2022-12-23T22:09:21.183Z,28.50
2022-12-23T22:11:49.339Z,27.50
2022-12-23T22:14:19.860Z,29.90
2022-12-23T22:16:49.866Z,33.90
2022-12-23T22:19:19.603Z,29.90
2022-12-23T22:21:47.787Z,28.90
2022-12-23T22:24:17.299Z,28.60
2022-12-23T22:26:45.248Z,27.90
2022-12-23T22:29:13.485Z,29.50
2022-12-23T22:31:53.354Z,27.50
2022-12-23T22:34:22.936Z,31.40
2022-12-23T22:36:51.626Z,27.60
2022-12-23T22:39:23.067Z,29.60
2022-12-23T22:41:52.577Z,27.40
2022-12-23T22:44:23.710Z,33.20
2022-12-23T22:46:53.241Z,30.60
2022-12-23T22:49:22.894Z,30.10
2022-12-23T22:51:50.843Z,32.30
2022-12-23T22:54:19.055Z,27.00
2022-12-23T22:56:49.835Z,29.20
2022-12-23T22:59:23.188Z,29.20
2022-12-23T23:01:54.471Z,29.50
2022-12-23T23:04:24.897Z,28.90
2022-12-23T23:06:53.708Z,30.70
2022-12-23T23:09:24.593Z,30.00
2022-12-23T23:11:52.778Z,28.50
2022-12-23T23:14:20.821Z,28.20
2022-12-23T23:16:53.659Z,30.70
2022-12-23T23:19:22.338Z,26.70
2022-12-23T23:21:50.974Z,29.30
2022-12-23T23:24:19.172Z,27.50
2022-12-23T23:26:47.335Z,28.90
2022-12-23T23:29:15.289Z,31.10
2022-12-23T23:31:44.521Z,27.60
2022-12-23T23:34:16.140Z,25.80
2022-12-23T23:36:44.508Z,29.10
2022-12-23T23:39:17.304Z,27.70
2022-12-23T23:41:45.211Z,28.60
2022-12-23T23:44:13.497Z,30.00
2022-12-23T23:46:41.705Z,28.10
2022-12-23T23:49:12.220Z,27.90
2022-12-23T23:51:43.149Z,30.90
2022-12-23T23:54:11.352Z,27.90
2022-12-23T23:56:39.670Z,26.60
2022-12-23T23:59:09.703Z,27.60
